Time;durP1;ratioP1;P1;durP2;ratioP2;P2;SDS_P1;SDS_P2;PMS_P1;PMS_P2;Temp;Humidity;BMP_temperature;BMP_pressure;BME280_temperature;BME280_humidity;BME280_pressure;Samples;Min_cycle;Max_cycle;Signal;HPM_P1;HPM_P2
2022/07/30 00:01:41;;;;;;;5.85;3.50;;;;;;;23.24;52.59;100649.80;1721402;81;21483;-65
2022/07/30 00:04:11;;;;;;;7.03;3.25;;;;;;;23.22;52.80;100644.48;1720125;83;21108;-64
2022/07/30 00:06:41;;;;;;;6.12;3.33;;;;;;;23.17;52.88;100646.42;1722577;83;21513;-65
2022/07/30 00:09:12;;;;;;;6.37;3.10;;;;;;;23.13;53.09;100640.55;1723003;82;21056;-65
2022/07/30 00:11:41;;;;;;;3.55;3.17;;;;;;;23.11;53.15;100644.17;1724139;83;20996;-66
2022/07/30 00:14:12;;;;;;;5.20;3.70;;;;;;;23.07;53.34;100645.28;1721675;83;21103;-64
2022/07/30 00:16:42;;;;;;;4.25;3.20;;;;;;;23.03;53.52;100642.75;1726512;83;21087;-65
2022/07/30 00:19:12;;;;;;;4.20;3.30;;;;;;;23.01;53.63;100639.95;1731616;83;21020;-65
2022/07/30 00:21:41;;;;;;;6.42;3.42;;;;;;;22.93;53.99;100635.73;1726786;83;21108;-65
2022/07/30 00:24:11;;;;;;;8.28;3.47;;;;;;;22.83;54.23;100634.30;1721074;83;21036;-65
2022/07/30 00:26:41;;;;;;;6.97;3.47;;;;;;;22.73;54.54;100641.17;1721234;83;21063;-66
2022/07/30 00:29:10;;;;;;;6.10;3.35;;;;;;;22.63;54.84;100630.79;1721091;83;21057;-65
2022/07/30 00:31:40;;;;;;;6.10;3.30;;;;;;;22.56;55.04;100633.55;1721888;83;21063;-66
2022/07/30 00:34:11;;;;;;;5.25;3.47;;;;;;;22.49;55.35;100632.95;1726187;83;21059;-64
2022/07/30 00:36:41;;;;;;;4.15;2.87;;;;;;;22.39;55.69;100629.55;1729685;83;20991;-66
2022/07/30 00:39:12;;;;;;;5.55;3.33;;;;;;;22.32;55.93;100630.34;1691795;84;21122;-65
2022/07/30 00:42:01;;;;;;;4.15;3.27;;;;;;;22.26;56.07;100628.62;1677441;84;21011;-65
2022/07/30 00:44:31;;;;;;;4.62;3.08;;;;;;;22.26;56.10;100625.84;1691007;84;21088;-66
2022/07/30 00:47:01;;;;;;;5.97;3.17;;;;;;;22.23;56.26;100624.42;1684400;84;21047;-65
2022/07/30 00:49:33;;;;;;;10.32;3.55;;;;;;;22.17;56.49;100624.11;1691893;84;21529;-64
2022/07/30 00:52:04;;;;;;;7.53;3.62;;;;;;;22.12;56.76;100624.91;1693390;84;21089;-65
2022/07/30 00:54:34;;;;;;;4.62;3.25;;;;;;;22.06;56.97;100625.12;1698202;84;21093;-64
2022/07/30 00:57:03;;;;;;;6.22;3.40;;;;;;;22.03;57.10;100631.23;1702131;83;21608;-64
2022/07/30 00:59:33;;;;;;;4.97;3.45;;;;;;;22.01;57.24;100624.49;1718273;83;21078;-65
2022/07/30 01:02:04;;;;;;;6.25;3.33;;;;;;;21.99;57.37;100621.13;1698028;84;21538;-64
2022/07/30 01:04:36;;;;;;;6.10;3.47;;;;;;;21.98;57.51;100621.39;1706837;84;21517;-65
2022/07/30 01:07:05;;;;;;;4.15;3.20;;;;;;;21.97;57.62;100616.92;1710787;84;21074;-65
2022/07/30 01:09:35;;;;;;;5.15;3.55;;;;;;;21.95;57.81;100620.53;1710421;84;21506;-65
2022/07/30 01:12:05;;;;;;;6.45;3.33;;;;;;;21.91;58.05;100620.23;1705188;84;21289;-65
2022/07/30 01:14:36;;;;;;;4.25;3.33;;;;;;;21.83;58.25;100613.75;1705481;84;21037;-66
2022/07/30 01:17:06;;;;;;;4.45;3.37;;;;;;;21.76;58.53;100608.40;1709476;84;21132;-64
2022/07/30 01:19:51;;;;;;;5.83;3.47;;;;;;;21.71;58.78;100612.55;1646806;87;21129;-66
2022/07/30 01:22:53;;;;;;;4.92;3.45;;;;;;;21.66;59.00;100604.69;1650649;86;21114;-63
2022/07/30 01:25:51;;;;;;;8.38;3.77;;;;;;;21.62;59.18;100609.95;1632745;86;21570;-64
2022/07/30 01:28:35;;;;;;;;;;;;;;;21.60;59.35;100598.78;1649245;86;21059;-64
2022/07/30 01:31:06;;;;;;;6.70;3.72;;;;;;;21.56;59.54;100604.60;1647246;86;20583;-67
2022/07/30 01:33:40;;;;;;;6.12;3.80;;;;;;;21.49;59.82;100601.48;1644376;86;21108;-64
2022/07/30 01:36:13;;;;;;;7.75;3.72;;;;;;;21.44;60.09;100593.59;1638417;86;21017;-64
2022/07/30 01:38:45;;;;;;;5.12;3.47;;;;;;;21.39;60.37;100595.78;1723168;82;21054;-65
2022/07/30 01:41:16;;;;;;;4.83;3.55;;;;;;;21.35;60.60;100604.38;1740379;81;21011;-64
2022/07/30 01:43:47;;;;;;;6.42;3.70;;;;;;;21.32;60.91;100599.88;1744762;82;21051;-65
2022/07/30 01:46:17;;;;;;;5.45;3.22;;;;;;;21.23;61.18;100604.25;1728921;82;21106;-64
2022/07/30 01:48:49;;;;;;;4.80;3.50;;;;;;;21.21;61.35;100600.30;1739606;82;21015;-64
2022/07/30 01:51:19;;;;;;;5.30;3.47;;;;;;;21.18;61.56;100601.67;1723412;82;21070;-65
2022/07/30 01:53:52;;;;;;;5.28;3.60;;;;;;;21.16;61.78;100597.47;1733810;83;21039;-65
2022/07/30 01:56:23;;;;;;;6.30;3.40;;;;;;;21.15;61.87;100596.63;1731675;82;21023;-65
2022/07/30 01:58:55;;;;;;;4.85;3.47;;;;;;;21.15;62.06;100591.60;1747824;82;21082;-64
2022/07/30 02:01:28;;;;;;;5.87;3.67;;;;;;;21.10;62.24;100589.61;1740361;81;21091;-64
2022/07/30 02:04:01;;;;;;;5.37;3.80;;;;;;;21.06;62.46;100585.66;1732842;83;21072;-65
2022/07/30 02:06:35;;;;;;;8.30;4.17;;;;;;;20.98;62.70;100586.13;1729162;83;21063;-64
2022/07/30 02:09:07;;;;;;;6.83;3.85;;;;;;;20.95;62.91;100587.21;1728238;83;21020;-63
2022/07/30 02:14:45;;;;;;;5.70;3.62;;;;;;;20.94;63.18;100587.77;1717926;83;21079;-64
2022/07/30 02:17:20;;;;;;;6.45;3.83;;;;;;;20.94;63.28;100587.77;1722775;83;21083;-65
2022/07/30 02:19:53;;;;;;;9.13;4.20;;;;;;;20.90;63.45;100587.99;1723787;83;21068;-66
2022/07/30 02:22:25;;;;;;;15.70;4.67;;;;;;;20.92;63.56;100587.18;1726085;83;21051;-67
2022/07/30 02:24:55;;;;;;;8.00;4.00;;;;;;;20.93;63.67;100592.20;1724040;83;21139;-65
2022/07/30 02:27:31;;;;;;;7.92;4.08;;;;;;;20.92;63.81;100594.70;1721759;83;21028;-66
2022/07/30 02:30:02;;;;;;;8.03;4.22;;;;;;;20.94;63.84;100591.09;1721229;83;21047;-66
2022/07/30 02:32:36;;;;;;;6.55;4.03;;;;;;;20.96;63.86;100583.32;1721678;83;20995;-66
2022/07/30 02:35:17;;;;;;;7.35;3.90;;;;;;;20.98;63.87;100594.48;1728345;82;21126;-65
2022/07/30 02:37:49;;;;;;;5.65;4.12;;;;;;;20.99;63.86;100596.72;1715502;83;21003;-65
2022/07/30 02:40:20;;;;;;;12.60;4.78;;;;;;;20.99;63.91;100601.75;1730807;83;21527;-64
2022/07/30 02:42:51;;;;;;;7.25;4.40;;;;;;;21.03;63.93;100602.91;1715463;83;21450;-65
2022/07/30 02:45:24;;;;;;;5.87;4.10;;;;;;;20.98;63.99;100599.22;1726850;83;21372;-65
2022/07/30 02:48:00;;;;;;;6.87;3.72;;;;;;;20.97;64.16;100603.11;1712649;83;21074;-65
2022/07/30 02:50:31;;;;;;;5.42;4.05;;;;;;;20.99;64.18;100608.70;1726667;83;21032;-64
2022/07/30 02:53:02;;;;;;;7.78;4.20;;;;;;;20.97;64.22;100606.73;1729052;83;21059;-66
2022/07/30 02:55:32;;;;;;;8.90;4.10;;;;;;;20.96;64.31;100609.23;1722467;82;21484;-65
2022/07/30 02:58:06;;;;;;;10.05;4.95;;;;;;;20.95;64.40;100611.73;1728072;83;21126;-64
2022/07/30 03:00:35;;;;;;;7.15;4.20;;;;;;;20.94;64.54;100615.62;1729476;82;21456;-66
2022/07/30 03:03:06;;;;;;;8.70;4.25;;;;;;;20.93;64.69;100618.66;1733971;82;21032;-65
2022/07/30 03:05:40;;;;;;;8.15;4.28;;;;;;;20.93;64.78;100613.94;1732740;82;21475;-63
2022/07/30 03:08:10;;;;;;;9.40;4.60;;;;;;;20.94;64.83;100613.38;1717070;82;21024;-65
2022/07/30 03:10:40;;;;;;;10.55;4.40;;;;;;;20.98;64.82;100613.99;1724569;82;21541;-64
2022/07/30 03:13:11;;;;;;;10.58;4.67;;;;;;;21.00;64.83;100617.91;1711235;83;21032;-64
2022/07/30 03:15:44;;;;;;;9.85;5.30;;;;;;;21.00;64.84;100617.36;1709130;83;21469;-65
2022/07/30 03:18:16;;;;;;;11.15;5.12;;;;;;;21.05;64.86;100614.62;1694316;83;21114;-65
2022/07/30 03:20:50;;;;;;;7.87;4.72;;;;;;;21.08;64.79;100614.11;1717745;83;21115;-64
2022/07/30 03:23:20;;;;;;;8.35;4.60;;;;;;;21.12;64.70;100612.48;1715562;83;21068;-65
2022/07/30 03:26:00;;;;;;;8.65;4.65;;;;;;;21.16;64.59;100613.64;1716418;83;21433;-64
2022/07/30 03:28:34;;;;;;;9.33;5.17;;;;;;;21.21;64.49;100615.08;1714695;83;21020;-64
2022/07/30 03:31:04;;;;;;;10.25;5.20;;;;;;;21.24;64.46;100615.69;1705995;82;21036;-65
2022/07/30 03:33:35;;;;;;;6.83;4.85;;;;;;;21.27;64.51;100615.17;1731736;82;21437;-63
2022/07/30 03:36:07;;;;;;;14.00;5.25;;;;;;;21.31;64.43;100613.53;1732133;82;21070;-65
2022/07/30 03:38:37;;;;;;;10.28;4.83;;;;;;;21.38;64.33;100613.61;1731869;82;21466;-64
2022/07/30 03:41:10;;;;;;;9.43;5.15;;;;;;;21.42;64.22;100615.31;1709370;82;21102;-65
2022/07/30 03:43:42;;;;;;;8.55;5.17;;;;;;;21.45;64.13;100610.60;1685299;84;21136;-64
2022/07/30 03:46:11;;;;;;;7.87;5.05;;;;;;;21.51;64.00;100615.99;1643847;84;21129;-65
2022/07/30 03:48:44;;;;;;;6.92;4.97;;;;;;;21.55;63.88;100609.33;1676791;84;21495;-65
2022/07/30 03:51:17;;;;;;;7.87;4.80;;;;;;;21.60;63.71;100609.38;1680471;84;21134;-65
2022/07/30 03:53:50;;;;;;;10.45;5.37;;;;;;;21.65;63.64;100608.58;1692767;84;21042;-64
2022/07/30 03:56:39;;;;;;;15.08;7.12;;;;;;;21.70;63.52;100612.81;1658681;84;21545;-63
2022/07/30 03:59:15;;;;;;;10.65;5.60;;;;;;;21.74;63.40;100612.02;1678804;84;21537;-64
2022/07/30 04:01:45;;;;;;;10.95;5.03;;;;;;;21.79;63.13;100612.05;1699152;82;21011;-65
2022/07/30 04:04:20;;;;;;;12.15;5.60;;;;;;;21.85;62.74;100612.93;1724353;82;21129;-65
2022/07/30 04:06:51;;;;;;;7.35;5.00;;;;;;;21.89;62.44;100607.11;1721387;82;21036;-63
2022/07/30 04:09:20;;;;;;;8.38;5.67;;;;;;;21.95;62.05;100607.42;1723311;82;21060;-65
2022/07/30 04:11:50;;;;;;;9.45;4.67;;;;;;;22.01;61.56;100609.70;1736186;82;21023;-65
2022/07/30 04:14:24;;;;;;;11.10;4.87;;;;;;;22.04;61.13;100610.59;1733491;82;21051;-64
2022/07/30 04:17:03;;;;;;;5.90;3.95;;;;;;;22.05;60.70;100610.32;1728982;82;20995;-66
2022/07/30 04:19:39;;;;;;;9.58;4.17;;;;;;;22.05;60.27;100610.32;1741661;82;21035;-67
2022/07/30 04:22:08;;;;;;;6.83;3.87;;;;;;;22.05;59.89;100610.32;1701052;83;21503;-65
2022/07/30 04:24:39;;;;;;;8.13;3.75;;;;;;;22.09;59.45;100605.04;1717147;82;21084;-64
2022/07/30 04:27:09;;;;;;;8.80;3.42;;;;;;;22.14;59.05;100605.95;1731756;82;21038;-65
2022/07/30 04:29:42;;;;;;;5.80;3.47;;;;;;;22.18;58.90;100606.25;1710654;82;21118;-64
2022/07/30 04:32:11;;;;;;;8.73;3.83;;;;;;;22.20;58.38;100610.17;1731032;82;21023;-66
2022/07/30 04:34:59;;;;;;;7.35;3.50;;;;;;;22.24;58.20;100611.31;1736801;80;21019;-66
2022/07/30 04:37:40;;;;;;;11.33;3.75;;;;;;;22.26;57.72;100605.74;1680535;85;21080;-66
2022/07/30 04:40:10;;;;;;;8.38;3.75;;;;;;;22.31;57.62;100607.16;1730152;82;21032;-66
2022/07/30 04:42:41;;;;;;;6.67;3.42;;;;;;;22.37;57.31;100604.69;1704284;83;21467;-64
2022/07/30 04:45:12;;;;;;;5.33;3.33;;;;;;;22.42;56.79;100608.06;1716133;83;21032;-66
2022/07/30 04:47:59;;;;;;;7.62;3.67;;;;;;;22.45;56.50;100604.73;1706144;83;21015;-65
2022/07/30 04:50:50;;;;;;;10.05;3.83;;;;;;;22.52;56.42;100603.92;1711015;83;21106;-65
2022/07/30 04:53:19;;;;;;;8.08;3.30;;;;;;;22.55;56.22;100608.12;1700622;83;21048;-66
2022/07/30 04:55:55;;;;;;;6.72;3.55;;;;;;;22.57;55.84;100598.92;1699969;83;21028;-65
2022/07/30 04:58:28;;;;;;;7.20;3.60;;;;;;;22.61;55.56;100602.29;1698515;83;21081;-64
2022/07/30 05:00:59;;;;;;;6.58;3.60;;;;;;;22.68;55.50;100599.25;1718163;82;21088;-65
2022/07/30 05:03:31;;;;;;;5.97;3.58;;;;;;;22.73;55.61;100599.27;1723143;82;21536;-66
2022/07/30 05:06:01;;;;;;;10.63;3.65;;;;;;;22.74;55.44;100595.36;1722245;82;21526;-66
2022/07/30 05:08:32;;;;;;;9.93;3.45;;;;;;;22.73;55.42;100592.28;1731367;82;21078;-67
2022/07/30 05:11:05;;;;;;;7.83;3.20;;;;;;;22.77;54.97;100596.23;1721550;82;21068;-63
2022/07/30 05:13:36;;;;;;;9.23;2.90;;;;;;;22.77;54.65;100592.89;1723041;82;21533;-64
2022/07/30 05:16:10;;;;;;;9.00;3.27;;;;;;;22.80;54.60;100595.72;1736651;82;21517;-65
2022/07/30 05:18:41;;;;;;;9.58;3.35;;;;;;;22.83;54.61;100595.73;1734614;82;21019;-64
2022/07/30 05:21:12;;;;;;;8.35;3.30;;;;;;;22.88;54.66;100598.55;1728450;82;21063;-65
2022/07/30 05:23:43;;;;;;;5.97;3.30;;;;;;;22.94;54.61;100605.27;1724930;82;21468;-65
2022/07/30 05:26:21;;;;;;;5.85;3.20;;;;;;;23.01;54.40;100608.64;1735631;82;21016;-65
2022/07/30 05:28:55;;;;;;;6.00;3.50;;;;;;;23.04;54.14;100608.09;1743705;82;21105;-64
2022/07/30 05:31:46;;;;;;;8.98;4.05;;;;;;;23.09;53.87;100608.11;1740790;82;21027;-66
2022/07/30 05:34:18;;;;;;;10.88;3.37;;;;;;;23.15;53.69;100613.16;1739288;82;21449;-65
2022/07/30 05:36:48;;;;;;;8.98;3.58;;;;;;;23.19;53.61;100620.44;1725080;82;21043;-63
2022/07/30 05:39:18;;;;;;;6.58;3.30;;;;;;;23.23;53.58;100611.77;1736521;82;21442;-66
2022/07/30 05:41:58;;;;;;;7.22;3.17;;;;;;;23.26;52.56;100619.05;1720546;82;21061;-65
2022/07/30 05:44:30;;;;;;;8.73;3.00;;;;;;;23.30;52.53;100613.74;1720908;82;20999;-65
2022/07/30 05:47:00;;;;;;;6.70;3.08;;;;;;;23.32;52.29;100619.34;1734879;82;20988;-65
2022/07/30 05:49:33;;;;;;;7.47;3.10;;;;;;;23.35;52.21;100623.54;1746954;82;21024;-66
2022/07/30 05:52:05;;;;;;;5.53;3.25;;;;;;;23.40;52.31;100620.75;1732863;82;21042;-65
2022/07/30 05:54:36;;;;;;;6.47;2.85;;;;;;;23.46;52.23;100623.03;1731656;82;21028;-65
2022/07/30 05:57:09;;;;;;;5.95;3.10;;;;;;;23.50;51.96;100618.56;1735506;82;21123;-65
2022/07/30 05:59:41;;;;;;;5.35;3.10;;;;;;;23.54;51.87;100617.72;1734592;82;21065;-64
2022/07/30 06:02:11;;;;;;;6.37;3.37;;;;;;;23.59;52.04;100616.36;1732309;82;21505;-66
2022/07/30 06:04:51;;;;;;;26.48;9.63;;;;;;;23.67;51.93;100624.20;1698827;84;21064;-66
2022/07/30 06:07:22;;;;;;;9.40;4.17;;;;;;;23.79;52.08;100621.68;1731651;81;21107;-66
2022/07/30 06:09:52;;;;;;;8.55;3.75;;;;;;;23.91;52.11;100620.27;1731255;81;21039;-66
2022/07/30 06:12:22;;;;;;;6.50;3.20;;;;;;;24.00;51.74;100618.59;1742393;81;21439;-67
2022/07/30 06:14:52;;;;;;;6.12;3.37;;;;;;;24.12;51.14;100622.52;1752467;81;21022;-67
2022/07/30 06:17:25;;;;;;;9.28;3.47;;;;;;;24.18;51.02;100619.15;1740784;81;21455;-65
2022/07/30 06:20:12;;;;;;;8.20;3.08;;;;;;;24.27;51.16;100617.48;1745205;81;21067;-66
2022/07/30 06:22:46;;;;;;;4.70;3.02;;;;;;;24.53;50.45;100616.85;1674737;85;21050;-65
2022/07/30 06:25:18;;;;;;;10.85;5.25;;;;;;;24.85;49.55;100614.52;1677656;85;21039;-67
2022/07/30 06:27:49;;;;;;;8.35;4.95;;;;;;;25.25;48.38;100611.24;1677772;85;21090;-65
2022/07/30 06:30:19;;;;;;;8.13;3.08;;;;;;;25.62;47.44;100608.48;1677270;85;21044;-66
2022/07/30 06:32:51;;;;;;;5.37;2.83;;;;;;;25.97;45.52;100605.39;1667002;85;21074;-67
2022/07/30 06:35:21;;;;;;;9.78;2.90;;;;;;;26.15;44.39;100599.07;1677611;85;21072;-67
2022/07/30 06:37:52;;;;;;;3.00;2.20;;;;;;;26.23;44.05;100608.25;1677440;85;21145;-66
2022/07/30 06:40:25;;;;;;;7.53;2.47;;;;;;;26.30;43.46;100612.11;1673795;85;21094;-66
2022/07/30 06:43:04;;;;;;;7.47;3.00;;;;;;;26.32;43.24;100608.44;1661565;85;21166;-65
2022/07/30 06:45:38;;;;;;;4.28;2.77;;;;;;;26.33;43.45;100605.93;1661229;85;21127;-66
2022/07/30 06:48:20;;;;;;;7.17;2.60;;;;;;;26.34;43.31;100605.37;1671421;85;21042;-67
2022/07/30 06:50:51;;;;;;;7.55;2.52;;;;;;;26.28;43.53;100605.95;1668862;85;21127;-66
2022/07/30 06:53:21;;;;;;;8.85;3.20;;;;;;;26.37;43.43;100600.55;1676638;85;21112;-65
2022/07/30 06:55:55;;;;;;;10.15;2.90;;;;;;;26.51;42.96;100605.73;1639496;85;21218;-67
2022/07/30 06:58:28;;;;;;;3.60;2.50;;;;;;;26.72;43.04;100603.54;1676042;85;21546;-66
2022/07/30 07:00:59;;;;;;;5.20;2.95;;;;;;;26.94;42.72;100606.63;1668583;85;21121;-66
2022/07/30 07:03:31;;;;;;;5.22;2.20;;;;;;;27.25;41.40;100614.09;1679211;85;21037;-66
2022/07/30 07:06:04;;;;;;;4.97;2.72;;;;;;;27.47;40.75;100607.88;1674590;81;21051;-67
2022/07/30 07:08:37;;;;;;;5.72;2.85;;;;;;;27.68;40.87;100607.02;1673001;85;21157;-66
2022/07/30 07:11:07;;;;;;;5.58;2.55;;;;;;;27.93;40.64;100605.73;1662103;85;21056;-67
2022/07/30 07:13:40;;;;;;;6.17;2.80;;;;;;;28.35;39.32;100601.91;1659100;85;21112;-67
2022/07/30 07:16:10;;;;;;;12.95;3.15;;;;;;;28.53;39.31;100597.34;1668610;85;21049;-65
2022/07/30 07:18:43;;;;;;;8.05;3.10;;;;;;;28.77;39.15;100588.11;1638635;87;21073;-66
2022/07/30 07:21:14;;;;;;;6.22;3.12;;;;;;;28.77;39.15;100588.11;1650134;87;21521;-65
2022/07/30 07:23:44;;;;;;;7.92;3.02;;;;;;;29.05;38.41;100588.94;1629126;87;21093;-67
2022/07/30 07:26:16;;;;;;;5.78;2.95;;;;;;;29.28;38.27;100581.38;1655405;84;21048;-66
2022/07/30 07:28:47;;;;;;;5.47;3.02;;;;;;;29.51;37.32;100583.68;1699283;84;21504;-65
2022/07/30 07:31:18;;;;;;;6.62;2.75;;;;;;;29.79;37.45;100585.22;1695555;84;21077;-67
2022/07/30 07:33:53;;;;;;;5.78;2.70;;;;;;;30.02;36.11;100579.61;1687938;84;22236;-66
2022/07/30 07:36:24;;;;;;;7.30;2.72;;;;;;;30.22;35.85;100586.95;1656981;85;21118;-66
2022/07/30 07:38:54;;;;;;;8.03;2.85;;;;;;;30.28;35.81;100587.65;1689817;85;21080;-66
2022/07/30 07:41:25;;;;;;;5.85;2.60;;;;;;;30.39;35.17;100581.96;1689400;84;21125;-67
2022/07/30 07:43:55;;;;;;;5.40;2.58;;;;;;;30.51;34.98;100576.52;1690388;85;21017;-65
2022/07/30 07:46:28;;;;;;;4.78;2.52;;;;;;;30.72;34.61;100580.23;1724253;81;21047;-64
2022/07/30 07:49:01;;;;;;;3.67;2.27;;;;;;;30.94;33.85;100580.11;1732750;82;21050;-66
2022/07/30 07:51:34;;;;;;;4.00;2.17;;;;;;;31.16;32.95;100574.34;1748495;81;21094;-65
2022/07/30 07:54:06;;;;;;;6.90;2.92;;;;;;;31.19;32.58;100577.94;1735028;81;21067;-66
2022/07/30 07:56:37;;;;;;;4.03;2.30;;;;;;;31.19;32.87;100575.69;1688693;83;21004;-66
2022/07/30 07:59:09;;;;;;;6.42;3.00;;;;;;;31.31;32.50;100574.47;1683635;83;21076;-66
2022/07/30 08:01:41;;;;;;;8.25;4.70;;;;;;;31.21;32.14;100575.63;1724885;81;21043;-63
2022/07/30 08:04:14;;;;;;;3.40;2.25;;;;;;;30.99;32.96;100564.39;1725673;81;21077;-63
2022/07/30 08:07:04;;;;;;;6.55;2.77;;;;;;;31.05;33.02;100570.72;1716019;83;21453;-64
2022/07/30 08:09:41;;;;;;;4.33;2.72;;;;;;;31.21;32.77;100574.22;1714933;83;21072;-63
2022/07/30 08:12:18;;;;;;;7.47;2.50;;;;;;;31.31;32.68;100567.98;1721807;83;21072;-65
2022/07/30 08:14:53;;;;;;;8.73;2.77;;;;;;;31.44;32.59;100574.89;1710143;83;21039;-65
2022/07/30 08:17:44;;;;;;;4.40;2.40;;;;;;;31.64;31.93;100570.55;1717540;83;21081;-65
2022/07/30 08:20:21;;;;;;;9.53;2.70;;;;;;;31.69;31.89;100554.78;1716945;83;21460;-66
2022/07/30 08:22:54;;;;;;;;;;;;;;;31.73;31.95;100557.23;1664444;85;21070;-66
2022/07/30 08:25:28;;;;;;;6.20;2.87;;;;;;;31.87;32.10;100559.06;1648941;86;20224;-65
2022/07/30 08:28:01;;;;;;;7.53;2.40;;;;;;;32.00;31.97;100552.36;1627315;87;21050;-65
2022/07/30 08:30:33;;;;;;;5.00;2.52;;;;;;;32.18;31.45;100548.30;1622864;87;21156;-65
2022/07/30 08:33:05;;;;;;;4.58;2.70;;;;;;;32.33;30.87;100550.61;1569900;90;21560;-67
2022/07/30 08:35:35;;;;;;;4.30;2.60;;;;;;;32.33;31.06;100540.67;1566789;90;21181;-67
2022/07/30 08:38:09;;;;;;;4.12;3.20;;;;;;;32.34;31.28;100537.25;1573273;90;21032;-66
2022/07/30 08:40:42;;;;;;;3.58;2.40;;;;;;;32.45;30.83;100543.62;1595282;87;21067;-66
2022/07/30 08:43:16;;;;;;;11.30;3.00;;;;;;;32.68;30.49;100541.36;1625924;87;21090;-65
2022/07/30 08:45:46;;;;;;;4.37;2.50;;;;;;;32.80;30.18;100534.97;1640077;86;21616;-65
2022/07/30 08:48:24;;;;;;;4.62;2.30;;;;;;;32.87;29.77;100531.59;1658001;86;21157;-65
2022/07/30 08:50:55;;;;;;;4.17;2.60;;;;;;;32.66;29.94;100523.02;1673199;86;21089;-66
2022/07/30 08:53:27;;;;;;;6.55;2.50;;;;;;;32.56;30.32;100520.57;1669799;86;21140;-66
2022/07/30 08:55:58;;;;;;;4.97;2.33;;;;;;;32.55;30.38;100520.33;1594587;89;21108;-67
2022/07/30 08:58:33;;;;;;;8.78;2.65;;;;;;;32.54;30.58;100511.56;1634437;87;21163;-67
2022/07/30 09:01:06;;;;;;;3.62;2.35;;;;;;;32.61;30.47;100514.70;1627081;87;21073;-67
2022/07/30 09:03:39;;;;;;;6.50;2.30;;;;;;;32.68;29.77;100512.98;1621648;86;21072;-66
2022/07/30 09:06:12;;;;;;;5.22;2.40;;;;;;;32.55;30.20;100502.72;1624758;88;21086;-66
2022/07/30 09:08:41;;;;;;;7.70;2.42;;;;;;;32.58;29.93;100499.77;1625423;88;21153;-66
2022/07/30 09:11:12;;;;;;;4.75;2.50;;;;;;;32.61;30.09;100499.92;1624898;88;21544;-68
2022/07/30 09:13:41;;;;;;;5.05;2.25;;;;;;;32.65;30.01;100513.67;1653053;83;21537;-66
2022/07/30 09:16:22;;;;;;;5.53;2.40;;;;;;;32.68;29.71;100501.63;1715095;83;21080;-65
2022/07/30 09:18:53;;;;;;;5.65;2.40;;;;;;;32.43;29.95;100499.75;1706469;83;21039;-67
2022/07/30 09:21:27;;;;;;;5.62;2.35;;;;;;;32.08;30.47;100497.63;1653959;86;21109;-66
2022/07/30 09:24:10;;;;;;;3.25;2.20;;;;;;;31.89;30.89;100499.45;1655303;86;21496;-67
2022/07/30 09:27:04;;;;;;;3.47;2.33;;;;;;;31.88;31.02;100496.96;1627656;87;21109;-66
2022/07/30 09:29:39;;;;;;;5.90;2.58;;;;;;;31.84;31.20;100499.02;1649659;87;21435;-66
2022/07/30 09:32:29;;;;;;;3.08;2.33;;;;;;;31.79;31.26;100501.20;1653891;86;21047;-65
2022/07/30 09:35:15;;;;;;;5.30;2.60;;;;;;;31.72;31.27;100510.81;1636310;87;21061;-67
2022/07/30 09:38:03;;;;;;;4.92;2.50;;;;;;;31.58;31.28;100503.06;1645440;87;21515;-66
2022/07/30 09:40:55;;;;;;;4.12;2.33;;;;;;;31.40;31.93;100503.67;1715435;83;21519;-65
2022/07/30 09:43:49;;;;;;;7.42;2.40;;;;;;;31.36;31.75;100499.84;1715707;83;21122;-65
2022/07/30 09:46:49;;;;;;;5.17;2.40;;;;;;;31.32;31.75;100500.27;1711740;82;21037;-66
2022/07/30 09:49:31;;;;;;;5.00;2.33;;;;;;;31.30;31.61;100503.44;1714075;82;21741;-67
2022/07/30 09:52:03;;;;;;;4.22;2.37;;;;;;;31.23;31.68;100482.45;1715685;83;21072;-67
2022/07/30 09:54:49;;;;;;;3.37;2.17;;;;;;;31.17;31.78;100496.74;1623625;88;21326;-66
2022/07/30 09:57:23;;;;;;;4.83;2.02;;;;;;;31.10;31.78;100496.96;1624952;88;21102;-67
2022/07/30 09:59:56;;;;;;;3.72;2.30;;;;;;;31.07;31.60;100498.46;1630048;87;21485;-64
2022/07/30 10:02:31;;;;;;;5.30;2.58;;;;;;;31.04;31.73;100502.54;1617395;88;21486;-67
2022/07/30 10:05:20;;;;;;;4.40;2.42;;;;;;;30.98;31.54;100504.70;1652791;85;21083;-67
2022/07/30 10:07:59;;;;;;;3.92;2.08;;;;;;;30.88;32.03;100490.30;1644768;86;21081;-65
2022/07/30 10:10:32;;;;;;;5.08;2.12;;;;;;;30.86;31.98;100496.04;1646662;86;21125;-67
2022/07/30 10:13:07;;;;;;;4.62;2.20;;;;;;;30.82;32.10;100495.86;1694399;83;21052;-66
2022/07/30 10:15:36;;;;;;;3.05;2.10;;;;;;;30.76;31.94;100495.78;1746927;81;21106;-65
2022/07/30 10:18:07;;;;;;;3.75;2.20;;;;;;;30.63;32.10;100495.34;1744867;81;21541;-64
2022/07/30 10:20:52;;;;;;;6.10;2.40;;;;;;;30.53;32.36;100489.93;1748592;81;21035;-65
2022/07/30 10:23:41;;;;;;;5.72;2.52;;;;;;;30.47;32.61;100492.66;1738660;81;21103;-65
2022/07/30 10:26:20;;;;;;;5.12;2.50;;;;;;;30.46;32.65;100493.82;1734839;81;21099;-67
2022/07/30 10:29:12;;;;;;;5.72;2.20;;;;;;;30.46;32.79;100497.48;1725163;81;21068;-67
2022/07/30 10:31:45;;;;;;;4.97;3.05;;;;;;;30.47;32.74;100496.91;1682817;84;21070;-68
2022/07/30 10:34:20;;;;;;;5.58;2.33;;;;;;;30.46;32.74;100494.66;1672241;84;21041;-67
2022/07/30 10:36:59;;;;;;;6.50;2.75;;;;;;;30.46;33.24;100495.23;1673764;84;21088;-72
2022/07/30 10:39:35;;;;;;;7.25;2.60;;;;;;;30.43;32.66;100486.83;1689378;84;21069;-66
2022/07/30 10:42:36;;;;;;;5.87;2.70;;;;;;;30.42;32.69;100488.57;1686682;84;21115;-68
2022/07/30 10:45:18;;;;;;;5.65;2.35;;;;;;;30.38;32.95;100491.22;1687214;84;21472;-67
2022/07/30 10:47:51;;;;;;;5.85;2.52;;;;;;;30.29;32.96;100488.37;1676023;84;21220;-68
2022/07/30 10:50:25;;;;;;;7.55;2.95;;;;;;;30.25;32.90;100485.11;1671994;86;21072;-69
2022/07/30 10:52:59;;;;;;;4.58;2.87;;;;;;;30.22;33.11;100482.94;1672100;84;21060;-67
2022/07/30 10:55:34;;;;;;;4.37;2.55;;;;;;;30.29;33.11;100481.88;1675919;83;21129;-67
2022/07/30 10:58:11;;;;;;;4.80;2.40;;;;;;;30.34;33.19;100481.73;1745585;81;21506;-67
2022/07/30 11:00:57;;;;;;;4.53;2.90;;;;;;;30.41;33.11;100486.91;1734120;81;21070;-67
2022/07/30 11:03:31;;;;;;;9.28;2.90;;;;;;;30.44;32.86;100475.77;1743338;81;21040;-68
2022/07/30 11:06:22;;;;;;;4.87;3.05;;;;;;;30.42;33.01;100478.09;1726507;81;21125;-67
2022/07/30 11:08:53;;;;;;;3.72;2.55;;;;;;;30.39;33.04;100474.52;1752266;81;21042;-67
2022/07/30 11:11:31;;;;;;;3.75;2.22;;;;;;;30.41;33.06;100467.94;1736986;81;21073;-67
2022/07/30 11:14:03;;;;;;;4.97;2.45;;;;;;;30.35;32.89;100472.09;1737440;81;21617;-66
2022/07/30 11:16:39;;;;;;;5.65;3.08;;;;;;;30.23;32.97;100469.89;1694442;84;21425;-67
2022/07/30 11:19:16;;;;;;;;;;;;;;;30.18;33.24;100465.80;1741633;82;21185;-69
2022/07/30 11:21:47;;;;;;;8.53;3.12;;;;;;;30.23;33.17;100466.23;1724949;82;20465;-67
2022/07/30 11:24:44;;;;;;;4.85;2.27;;;;;;;30.27;33.07;100461.00;1687667;82;21090;-68
2022/07/30 11:27:39;;;;;;;5.90;2.47;;;;;;;30.32;32.75;100457.78;1741125;82;21101;-67
2022/07/30 11:30:22;;;;;;;4.92;2.45;;;;;;;30.27;32.58;100465.83;1740728;82;21042;-68
2022/07/30 11:33:06;;;;;;;3.52;2.37;;;;;;;30.18;32.59;100464.97;1749713;81;20987;-67
2022/07/30 11:35:37;;;;;;;6.87;3.25;;;;;;;30.18;32.88;100458.73;1735338;81;21046;-67
2022/07/30 11:38:14;;;;;;;4.85;2.60;;;;;;;30.20;32.79;100462.06;1733118;81;21098;-68
2022/07/30 11:40:50;;;;;;;4.00;2.40;;;;;;;30.23;32.70;100454.92;1734709;82;21023;-67
2022/07/30 11:43:23;;;;;;;6.03;2.42;;;;;;;30.24;32.96;100439.63;1742955;81;21047;-68
2022/07/30 11:46:08;;;;;;;5.00;2.47;;;;;;;30.26;32.86;100442.96;1701781;83;21050;-68
2022/07/30 11:49:03;;;;;;;3.58;2.25;;;;;;;30.28;32.82;100443.47;1725119;82;21090;-67
2022/07/30 11:51:41;;;;;;;9.00;3.22;;;;;;;30.27;32.42;100443.21;1717252;82;21070;-68
2022/07/30 11:54:11;;;;;;;4.67;2.60;;;;;;;30.24;32.38;100433.97;1694678;84;21075;-67
2022/07/30 11:56:53;;;;;;;3.58;2.40;;;;;;;30.23;32.50;100429.48;1742742;81;21019;-67
2022/07/30 11:59:23;;;;;;;6.15;2.90;;;;;;;30.24;32.38;100438.22;1730142;81;21466;-69
2022/07/30 12:01:55;;;;;;;8.83;2.58;;;;;;;30.18;32.45;100433.30;1694515;84;21004;-69